Alvarado, Minnesota
Current Conditions -  °F | °C
As of 2:53 AM on Thursday 18 Dec 2014 (Local Time) from KGFK Reporting Station
Clear Clear  
Wind Chill: -8°   Ceiling: Unl
Heat Index:   Visibility: 10mi
Dew Point: -1°   Wind: 5mph
Humidity: 88%   Direction: 230°SW
Pressure: 30.3"   Gusts: NA
Location:  48.19°N, 97°W
Report Text: KGFK 180853Z AUTO 23004KT 10SM CLR M17/M18 A3030 RMK AO2 SLP281 T11671183 55004 TSNO
Loading
Personal Weather Stations






























Interactive Weather Map New forecast layout! Learn more

10-Day Weather Forecast

Advertisements
Track Severe Weather on mobile